createdAt,value
2017-12-25T00:01:01.979Z,14.00
2017-12-25T00:03:29.502Z,13.95
2017-12-25T00:05:57.035Z,12.80
2017-12-25T00:08:24.540Z,12.77
2017-12-25T00:10:52.050Z,12.37
2017-12-25T00:13:19.519Z,12.73
2017-12-25T00:15:47.066Z,12.07
2017-12-25T00:18:14.534Z,11.80
2017-12-25T00:20:42.021Z,11.15
2017-12-25T00:23:09.510Z,11.10
2017-12-25T00:25:37.002Z,10.98
2017-12-25T00:28:04.477Z,11.35
2017-12-25T00:30:32.730Z,11.27
2017-12-25T00:33:00.219Z,11.65
2017-12-25T00:35:28.466Z,11.63
2017-12-25T00:37:55.978Z,12.35
2017-12-25T00:40:23.446Z,12.05
2017-12-25T00:42:50.907Z,11.73
2017-12-25T00:45:18.406Z,12.13
2017-12-25T00:47:45.897Z,11.57
2017-12-25T00:50:13.369Z,11.32
2017-12-25T00:52:40.839Z,11.12
2017-12-25T00:55:08.341Z,10.60
2017-12-25T00:57:35.838Z,12.80
2017-12-25T01:00:03.290Z,10.10
2017-12-25T01:02:30.789Z,11.48
2017-12-25T01:04:58.254Z,10.52
2017-12-25T01:07:25.761Z,12.20
2017-12-25T01:09:53.231Z,10.02
2017-12-25T01:12:20.739Z,11.32
2017-12-25T01:14:48.218Z,11.15
2017-12-25T01:17:15.684Z,10.90
2017-12-25T01:19:43.950Z,10.40
2017-12-25T01:22:12.185Z,10.70
2017-12-25T01:24:39.714Z,10.90
2017-12-25T01:27:07.182Z,11.12
2017-12-25T01:29:34.701Z,12.18
2017-12-25T01:32:02.937Z,12.60
2017-12-25T01:34:30.461Z,10.95
2017-12-25T01:36:57.940Z,11.35
2017-12-25T01:39:25.399Z,11.88
2017-12-25T01:41:52.912Z,11.93
2017-12-25T01:44:20.378Z,12.73
2017-12-25T01:46:59.792Z,11.88
2017-12-25T01:49:27.245Z,12.43
2017-12-25T01:51:54.722Z,12.65
2017-12-25T01:54:22.210Z,11.12
2017-12-25T01:56:49.732Z,11.70
2017-12-25T02:02:22.929Z,12.60
2017-12-25T02:05:12.120Z,12.35
2017-12-25T02:08:00.479Z,13.45
2017-12-25T02:10:28.779Z,14.15
2017-12-25T02:12:57.009Z,14.00
2017-12-25T02:15:24.498Z,12.23
2017-12-25T02:17:52.757Z,12.13
2017-12-25T02:20:20.258Z,12.25
2017-12-25T02:22:47.750Z,13.93
2017-12-25T02:25:15.266Z,12.90
2017-12-25T02:27:43.499Z,13.75
2017-12-25T02:30:10.959Z,13.73
2017-12-25T02:32:38.454Z,13.52
2017-12-25T02:35:05.933Z,12.02
2017-12-25T02:37:33.488Z,12.50
2017-12-25T02:40:00.918Z,11.85
2017-12-25T02:42:29.174Z,12.75
2017-12-25T02:44:56.670Z,13.93
2017-12-25T02:47:24.136Z,13.10
2017-12-25T02:49:51.652Z,12.70
2017-12-25T02:52:19.119Z,11.68
2017-12-25T02:54:46.580Z,11.98
2017-12-25T02:57:14.839Z,12.30
2017-12-25T02:59:42.315Z,12.10
2017-12-25T03:02:10.575Z,12.63
2017-12-25T03:04:38.799Z,12.52
2017-12-25T03:07:06.272Z,11.43
2017-12-25T03:09:33.829Z,11.90
2017-12-25T03:12:01.281Z,12.65
2017-12-25T03:14:28.790Z,12.60
2017-12-25T03:16:56.258Z,13.32
2017-12-25T03:19:23.758Z,13.43
2017-12-25T03:21:51.255Z,12.07
2017-12-25T03:24:18.737Z,13.05
2017-12-25T03:26:47.007Z,13.18
2017-12-25T03:29:14.476Z,12.37
2017-12-25T03:31:42.733Z,13.90
2017-12-25T03:34:10.207Z,12.37
2017-12-25T03:36:38.479Z,14.63
2017-12-25T03:39:05.967Z,17.33
2017-12-25T03:41:33.431Z,13.57
2017-12-25T03:44:00.930Z,14.73
2017-12-25T03:46:28.386Z,13.70
2017-12-25T03:48:55.857Z,13.40
2017-12-25T03:51:23.341Z,12.60
2017-12-25T03:53:51.588Z,13.02
2017-12-25T03:56:19.074Z,12.70
2017-12-25T03:58:47.324Z,12.63
2017-12-25T04:01:14.818Z,13.60
2017-12-25T04:03:43.486Z,12.70
2017-12-25T04:06:11.750Z,12.30
2017-12-25T04:08:39.246Z,11.18
2017-12-25T04:11:07.462Z,12.25
2017-12-25T04:13:34.989Z,12.13
2017-12-25T04:16:02.444Z,11.57
2017-12-25T04:18:29.922Z,10.93
2017-12-25T04:20:57.410Z,11.10
2017-12-25T04:23:24.920Z,11.40
2017-12-25T04:25:53.186Z,11.38
2017-12-25T04:28:21.426Z,12.70
2017-12-25T04:30:48.940Z,11.43
2017-12-25T04:33:16.442Z,9.43
2017-12-25T04:35:43.920Z,10.27
2017-12-25T04:38:11.398Z,11.52
2017-12-25T04:40:39.655Z,10.82
2017-12-25T04:43:07.158Z,10.68
2017-12-25T04:45:34.640Z,11.55
2017-12-25T04:48:02.087Z,9.57
2017-12-25T04:50:29.617Z,11.52
2017-12-25T04:52:57.844Z,11.20
2017-12-25T04:55:25.338Z,9.20
2017-12-25T04:57:53.586Z,10.98
2017-12-25T05:00:21.062Z,10.50
2017-12-25T05:02:48.555Z,9.68
2017-12-25T05:05:16.023Z,9.70
2017-12-25T05:07:43.519Z,11.27
2017-12-25T05:10:11.006Z,9.10
2017-12-25T05:12:39.299Z,10.05
2017-12-25T05:15:07.516Z,11.07
2017-12-25T05:17:34.997Z,11.00
2017-12-25T05:20:02.502Z,11.35
2017-12-25T05:22:29.958Z,11.27
2017-12-25T05:24:57.466Z,11.38
2017-12-25T05:27:24.921Z,11.55
2017-12-25T05:29:52.386Z,11.73
2017-12-25T05:32:19.886Z,12.75
2017-12-25T05:34:47.360Z,12.90
2017-12-25T05:37:14.847Z,13.55
2017-12-25T05:39:42.311Z,14.27
2017-12-25T05:42:09.838Z,12.50
2017-12-25T05:44:37.311Z,14.10
2017-12-25T05:47:04.802Z,13.73
2017-12-25T05:49:32.320Z,12.60
2017-12-25T05:51:59.782Z,12.82
2017-12-25T05:54:27.287Z,13.65
2017-12-25T05:56:54.747Z,13.45
2017-12-25T05:59:22.211Z,11.60
2017-12-25T06:01:50.484Z,12.20
2017-12-25T06:04:18.750Z,11.85
2017-12-25T06:06:46.251Z,11.43
2017-12-25T06:09:13.743Z,11.82
2017-12-25T06:11:41.219Z,11.30
2017-12-25T06:14:08.762Z,10.52
2017-12-25T06:16:36.941Z,10.65
2017-12-25T06:19:04.443Z,10.13
2017-12-25T06:21:32.696Z,10.23
2017-12-25T06:24:00.159Z,10.30
2017-12-25T06:26:27.646Z,9.00
2017-12-25T06:28:55.858Z,10.70
2017-12-25T06:31:23.361Z,9.43
2017-12-25T06:33:52.322Z,9.63
2017-12-25T06:36:19.826Z,11.38
2017-12-25T06:38:47.307Z,10.02
2017-12-25T06:41:14.805Z,10.07
2017-12-25T06:43:42.298Z,11.27
2017-12-25T06:46:10.530Z,9.07
2017-12-25T06:48:38.010Z,9.27
2017-12-25T06:51:05.520Z,8.15
2017-12-25T06:53:32.985Z,8.93
2017-12-25T06:56:00.500Z,9.27
2017-12-25T06:58:27.961Z,8.43
2017-12-25T07:00:56.207Z,8.70
2017-12-25T07:03:23.693Z,7.85
2017-12-25T07:05:51.202Z,7.20
2017-12-25T07:08:18.663Z,6.70
2017-12-25T07:10:46.132Z,6.93
2017-12-25T07:13:13.634Z,6.70
2017-12-25T07:15:41.890Z,6.55
2017-12-25T07:18:09.399Z,7.40
2017-12-25T07:20:36.867Z,7.12
2017-12-25T07:23:04.315Z,6.45
2017-12-25T07:25:31.809Z,7.20
2017-12-25T07:27:59.399Z,7.32
2017-12-25T07:30:27.688Z,6.70
2017-12-25T07:32:55.130Z,7.15
2017-12-25T07:35:23.354Z,8.40
2017-12-25T07:37:50.858Z,7.35
2017-12-25T07:40:18.323Z,6.95
2017-12-25T07:42:46.547Z,6.72
2017-12-25T07:45:14.036Z,7.82
2017-12-25T07:47:41.525Z,8.95
2017-12-25T07:50:09.774Z,7.60
2017-12-25T07:52:37.245Z,8.55
2017-12-25T07:55:04.747Z,7.90
2017-12-25T07:57:32.207Z,9.32
2017-12-25T07:59:59.699Z,9.00
2017-12-25T08:02:27.179Z,9.93
2017-12-25T08:04:54.631Z,8.82
2017-12-25T08:07:22.124Z,8.02
2017-12-25T08:09:49.611Z,9.25
2017-12-25T08:12:17.062Z,8.95
2017-12-25T08:14:44.554Z,7.55
2017-12-25T08:17:12.049Z,7.90
2017-12-25T08:19:40.303Z,7.45
2017-12-25T08:22:07.752Z,7.93
2017-12-25T08:24:35.279Z,9.45
2017-12-25T08:27:02.750Z,9.80
2017-12-25T08:29:30.211Z,8.93
2017-12-25T08:31:57.706Z,9.10
2017-12-25T08:34:25.945Z,8.80
2017-12-25T08:36:53.444Z,10.35
2017-12-25T08:39:21.669Z,9.00
2017-12-25T08:41:49.178Z,10.18
2017-12-25T08:44:17.445Z,10.65
2017-12-25T08:46:44.922Z,9.45
2017-12-25T08:49:13.197Z,9.20
2017-12-25T08:51:41.431Z,9.15
2017-12-25T08:54:08.913Z,8.98
2017-12-25T08:56:37.195Z,9.60
2017-12-25T08:59:04.668Z,9.48
2017-12-25T09:01:32.919Z,11.52
2017-12-25T09:04:00.406Z,9.13
2017-12-25T09:06:28.683Z,10.35
2017-12-25T09:08:56.939Z,9.50
2017-12-25T09:11:24.396Z,9.40
2017-12-25T09:13:51.897Z,9.90
2017-12-25T09:16:19.359Z,10.20
2017-12-25T09:18:46.859Z,9.75
2017-12-25T09:21:14.335Z,8.70
2017-12-25T09:23:46.250Z,9.07
2017-12-25T09:26:13.749Z,10.60
2017-12-25T09:28:41.243Z,10.88
2017-12-25T09:31:08.729Z,9.68
2017-12-25T09:33:36.182Z,9.00
2017-12-25T09:36:03.666Z,8.70
2017-12-25T09:38:31.167Z,9.88
2017-12-25T09:40:59.416Z,10.30
2017-12-25T09:43:26.903Z,10.48
2017-12-25T09:45:55.163Z,9.60
2017-12-25T09:48:23.410Z,9.55
2017-12-25T09:50:50.903Z,10.85
2017-12-25T09:53:19.209Z,10.73
2017-12-25T09:55:46.668Z,10.20
2017-12-25T09:58:14.133Z,9.75
2017-12-25T10:00:41.632Z,11.02
2017-12-25T10:03:09.095Z,10.00
2017-12-25T10:05:37.379Z,11.02
2017-12-25T10:08:04.841Z,11.15
2017-12-25T10:10:32.319Z,10.73
2017-12-25T10:13:00.582Z,10.40
2017-12-25T10:15:28.054Z,10.85
2017-12-25T10:17:56.303Z,11.73
2017-12-25T10:20:23.813Z,12.82
2017-12-25T10:22:51.289Z,10.85
2017-12-25T10:25:18.790Z,11.90
2017-12-25T10:27:47.052Z,11.80
2017-12-25T10:30:14.534Z,11.73
2017-12-25T10:32:42.766Z,12.30
2017-12-25T10:35:10.271Z,11.70
2017-12-25T10:37:38.541Z,10.85
2017-12-25T10:40:06.777Z,12.40
2017-12-25T10:42:34.263Z,12.23
2017-12-25T10:45:01.751Z,11.40
2017-12-25T10:47:29.242Z,12.55
2017-12-25T10:49:56.720Z,13.65
2017-12-25T10:52:24.230Z,13.88
2017-12-25T10:54:51.745Z,14.73
2017-12-25T10:57:19.226Z,14.73
2017-12-25T10:59:47.507Z,15.40
2017-12-25T11:02:14.967Z,15.55
2017-12-25T11:04:43.238Z,16.67
2017-12-25T11:07:11.508Z,16.48
2017-12-25T11:09:38.970Z,15.38
2017-12-25T11:12:07.238Z,16.02
2017-12-25T11:14:34.756Z,18.52
2017-12-25T11:17:02.239Z,16.27
2017-12-25T11:19:29.718Z,17.90
2017-12-25T11:21:57.220Z,16.20
2017-12-25T11:24:24.718Z,15.70
2017-12-25T11:26:52.244Z,17.62
2017-12-25T11:29:19.699Z,15.10
2017-12-25T11:31:47.175Z,15.30
2017-12-25T11:34:14.668Z,13.82
2017-12-25T11:36:42.126Z,14.05
2017-12-25T11:39:09.615Z,15.52
2017-12-25T11:41:37.087Z,14.70
2017-12-25T11:44:04.591Z,13.90
2017-12-25T11:46:32.074Z,13.85
2017-12-25T11:49:00.343Z,14.55
2017-12-25T11:51:27.858Z,13.95
2017-12-25T11:53:55.363Z,15.70
2017-12-25T11:56:22.851Z,16.35
2017-12-25T11:58:50.463Z,15.35
2017-12-25T12:01:17.970Z,17.05
2017-12-25T12:03:46.184Z,15.13
2017-12-25T12:06:13.660Z,15.50
2017-12-25T12:08:41.161Z,13.55
2017-12-25T12:11:08.638Z,14.10
2017-12-25T12:13:36.137Z,14.63
2017-12-25T12:16:03.629Z,13.57
2017-12-25T12:18:31.863Z,17.02
2017-12-25T12:20:59.366Z,17.42
2017-12-25T12:23:27.612Z,17.25
2017-12-25T12:25:55.114Z,18.52
2017-12-25T12:28:22.571Z,19.50
2017-12-25T12:30:50.027Z,19.08
2017-12-25T12:33:17.527Z,17.27
2017-12-25T12:35:44.985Z,19.90
2017-12-25T12:38:12.494Z,17.87
2017-12-25T12:40:40.727Z,19.08
2017-12-25T12:43:08.226Z,18.45
2017-12-25T12:45:35.704Z,18.62
2017-12-25T12:48:03.207Z,17.23
2017-12-25T12:50:30.699Z,18.95
2017-12-25T12:52:58.951Z,17.15
2017-12-25T12:55:26.475Z,17.25
2017-12-25T12:57:53.944Z,17.45
2017-12-25T13:00:21.497Z,16.60
2017-12-25T13:02:48.931Z,17.65
2017-12-25T13:05:16.422Z,17.83
2017-12-25T13:07:43.931Z,18.45
2017-12-25T13:10:12.162Z,17.20
2017-12-25T13:12:39.666Z,17.77
2017-12-25T13:15:07.890Z,20.60
2017-12-25T13:17:35.399Z,20.55
2017-12-25T13:20:03.630Z,20.92
2017-12-25T13:22:31.109Z,18.92
2017-12-25T13:24:58.610Z,19.95
2017-12-25T13:27:26.074Z,20.58
2017-12-25T13:29:53.547Z,19.33
2017-12-25T13:32:21.052Z,20.48
2017-12-25T13:34:48.519Z,22.35
2017-12-25T13:37:16.801Z,21.45
2017-12-25T13:39:45.023Z,22.05
2017-12-25T13:42:12.487Z,21.40
2017-12-25T13:44:39.988Z,21.42
2017-12-25T13:47:08.229Z,21.70
2017-12-25T13:49:35.722Z,21.48
2017-12-25T13:52:03.960Z,22.25
2017-12-25T13:54:31.461Z,22.35
2017-12-25T13:56:59.695Z,24.60
2017-12-25T13:59:27.199Z,23.73
2017-12-25T14:01:55.469Z,24.45
2017-12-25T14:04:23.698Z,23.20
2017-12-25T14:06:51.151Z,22.65
2017-12-25T14:09:18.660Z,21.17
2017-12-25T14:11:46.138Z,23.10
2017-12-25T14:14:13.627Z,22.02
2017-12-25T14:16:41.106Z,21.55
2017-12-25T14:19:08.629Z,22.17
2017-12-25T14:21:36.082Z,23.15
2017-12-25T14:24:03.571Z,22.17
2017-12-25T14:26:31.097Z,21.00
2017-12-25T14:28:58.568Z,22.62
2017-12-25T14:31:26.043Z,21.08
2017-12-25T14:33:53.598Z,22.55
2017-12-25T14:36:21.079Z,21.90
2017-12-25T14:38:48.594Z,21.90
2017-12-25T14:41:16.062Z,22.60
2017-12-25T14:43:43.550Z,20.45
2017-12-25T14:46:11.051Z,23.45
2017-12-25T14:48:39.278Z,22.15
2017-12-25T14:51:06.799Z,23.15
2017-12-25T14:53:35.047Z,24.25
2017-12-25T14:56:02.519Z,23.23
2017-12-25T14:58:30.795Z,21.17
2017-12-25T15:00:59.074Z,23.30
2017-12-25T15:03:33.294Z,21.95
2017-12-25T15:06:12.335Z,21.17
2017-12-25T15:08:46.781Z,23.23
2017-12-25T15:11:32.702Z,22.05
2017-12-25T15:14:06.343Z,20.60
2017-12-25T15:16:39.948Z,24.98
2017-12-25T15:19:11.462Z,21.05
2017-12-25T15:21:39.800Z,21.50
2017-12-25T15:26:45.799Z,20.95
2017-12-25T15:29:13.299Z,21.20
2017-12-25T15:31:41.527Z,19.12
2017-12-25T15:34:09.023Z,21.73
2017-12-25T15:36:36.550Z,18.77
2017-12-25T15:39:04.046Z,20.65
2017-12-25T15:41:32.283Z,19.15
2017-12-25T15:43:59.790Z,21.92
2017-12-25T15:46:28.070Z,20.55
2017-12-25T15:48:56.311Z,21.20
2017-12-25T15:51:23.805Z,18.77
2017-12-25T15:53:52.091Z,21.20
2017-12-25T15:56:20.347Z,20.08
2017-12-25T15:58:48.619Z,20.60
2017-12-25T16:01:16.100Z,18.12
2017-12-25T16:03:44.332Z,20.30
2017-12-25T16:06:11.820Z,19.90
2017-12-25T16:08:40.050Z,19.00
2017-12-25T16:11:07.556Z,19.25
2017-12-25T16:13:35.800Z,19.05
2017-12-25T16:16:03.262Z,19.75
2017-12-25T16:18:30.749Z,17.95
2017-12-25T16:20:58.984Z,19.67
2017-12-25T16:23:26.501Z,21.77
2017-12-25T16:25:54.726Z,21.55
2017-12-25T16:28:22.244Z,20.27
2017-12-25T16:30:49.721Z,20.52
2017-12-25T16:33:17.222Z,22.92
2017-12-25T16:35:44.723Z,22.30
2017-12-25T16:38:12.189Z,22.05
2017-12-25T16:40:39.715Z,22.60
2017-12-25T16:43:07.943Z,22.92
2017-12-25T16:45:35.413Z,19.70
2017-12-25T16:48:02.923Z,20.52
2017-12-25T16:50:30.399Z,20.25
2017-12-25T16:52:57.929Z,22.00
2017-12-25T16:55:26.750Z,19.50
2017-12-25T16:57:54.280Z,18.77
2017-12-25T17:00:22.543Z,18.92
2017-12-25T17:02:50.082Z,19.08
2017-12-25T17:05:17.563Z,20.80
2017-12-25T17:07:45.077Z,20.98
2017-12-25T17:10:12.566Z,19.90
2017-12-25T17:12:40.036Z,20.23
2017-12-25T17:15:07.537Z,20.00
2017-12-25T17:17:35.015Z,23.87
2017-12-25T17:20:02.536Z,22.45
2017-12-25T17:22:30.779Z,23.75
2017-12-25T17:24:58.309Z,21.77
2017-12-25T17:27:25.791Z,23.20
2017-12-25T17:29:54.052Z,23.42
2017-12-25T17:32:21.559Z,22.23
2017-12-25T17:34:49.807Z,22.20
2017-12-25T17:37:17.299Z,23.83
2017-12-25T17:39:45.531Z,23.98
2017-12-25T17:42:13.020Z,23.45
2017-12-25T17:44:41.293Z,25.30
2017-12-25T17:47:09.551Z,21.98
2017-12-25T17:49:37.066Z,22.87
2017-12-25T17:52:04.574Z,27.75
2017-12-25T17:54:32.056Z,26.98
2017-12-25T17:57:00.287Z,27.13
2017-12-25T17:59:27.816Z,26.25
2017-12-25T18:01:55.286Z,24.92
2017-12-25T18:04:22.818Z,24.55
2017-12-25T18:06:51.055Z,23.25
2017-12-25T18:09:18.518Z,24.60
2017-12-25T18:11:46.042Z,24.42
2017-12-25T18:14:13.517Z,24.10
2017-12-25T18:16:41.059Z,22.33
2017-12-25T18:19:08.539Z,25.48
2017-12-25T18:21:36.005Z,23.90
2017-12-25T18:24:03.503Z,21.98
2017-12-25T18:26:31.747Z,24.87
2017-12-25T18:28:59.249Z,24.65
2017-12-25T18:31:26.722Z,23.27
2017-12-25T18:33:54.218Z,25.52
2017-12-25T18:36:21.690Z,24.05
2017-12-25T18:38:49.189Z,25.17
2017-12-25T18:41:16.681Z,22.50
2017-12-25T18:43:44.187Z,22.90
2017-12-25T18:46:12.463Z,21.80
2017-12-25T18:48:40.713Z,22.27
2017-12-25T18:51:08.179Z,23.98
2017-12-25T18:53:36.459Z,24.48
2017-12-25T18:56:03.989Z,28.20
2017-12-25T18:58:31.447Z,30.65
2017-12-25T19:00:58.994Z,32.22
2017-12-25T19:03:26.466Z,28.23
2017-12-25T19:05:53.942Z,29.00
2017-12-25T19:08:21.475Z,31.37
2017-12-25T19:10:48.942Z,31.08
2017-12-25T19:13:16.406Z,31.15
2017-12-25T19:15:43.894Z,31.90
2017-12-25T19:18:12.129Z,31.80
2017-12-25T19:20:39.631Z,33.67
2017-12-25T19:23:07.881Z,32.22
2017-12-25T19:25:35.382Z,32.83
2017-12-25T19:28:03.612Z,35.85
2017-12-25T19:30:31.082Z,32.28
2017-12-25T19:32:58.601Z,31.45
2017-12-25T19:35:26.086Z,32.70
2017-12-25T19:37:53.616Z,35.40
2017-12-25T19:40:21.099Z,30.98
2017-12-25T19:42:48.625Z,28.50
2017-12-25T19:45:16.083Z,30.45
2017-12-25T19:47:43.618Z,33.13
2017-12-25T19:50:11.871Z,33.95
2017-12-25T19:52:39.368Z,31.58
2017-12-25T19:55:07.643Z,28.38
2017-12-25T19:57:35.880Z,28.98
2017-12-25T20:00:03.389Z,26.77
2017-12-25T20:02:30.885Z,25.58
2017-12-25T20:04:58.386Z,24.25
2017-12-25T20:07:26.667Z,25.77
2017-12-25T20:09:54.930Z,25.02
2017-12-25T20:12:22.428Z,22.48
2017-12-25T20:14:49.920Z,23.35
2017-12-25T20:17:17.421Z,22.35
2017-12-25T20:19:45.676Z,23.85
2017-12-25T20:22:13.140Z,23.40
2017-12-25T20:24:40.658Z,21.98
2017-12-25T20:27:08.119Z,21.70
2017-12-25T20:29:35.628Z,23.08
2017-12-25T20:32:03.868Z,23.00
2017-12-25T20:34:31.374Z,24.65
2017-12-25T20:36:59.635Z,20.98
2017-12-25T20:39:27.889Z,21.50
2017-12-25T20:41:55.390Z,22.65
2017-12-25T20:44:22.874Z,24.90
2017-12-25T20:46:50.367Z,23.98
2017-12-25T20:49:17.915Z,24.52
2017-12-25T20:51:45.362Z,21.70
2017-12-25T20:54:12.843Z,20.83
2017-12-25T20:56:42.006Z,19.92
2017-12-25T20:59:19.587Z,24.20
2017-12-25T21:01:49.962Z,21.30
2017-12-25T21:04:23.316Z,20.85
2017-12-25T21:09:48.118Z,20.48
2017-12-25T21:12:15.595Z,20.80
2017-12-25T21:14:43.107Z,21.15
2017-12-25T21:17:10.574Z,23.35
2017-12-25T21:19:38.818Z,21.83
2017-12-25T21:22:06.329Z,21.73
2017-12-25T21:24:33.814Z,22.65
2017-12-25T21:27:01.313Z,20.83
2017-12-25T21:29:28.793Z,21.70
2017-12-25T21:31:57.069Z,20.50
2017-12-25T21:34:25.330Z,19.73
2017-12-25T21:36:52.806Z,18.30
2017-12-25T21:39:21.076Z,20.65
2017-12-25T21:41:49.362Z,20.00
2017-12-25T21:44:17.636Z,16.37
2017-12-25T21:46:45.910Z,17.75
2017-12-25T21:49:14.187Z,20.00
2017-12-25T21:51:42.488Z,17.12
2017-12-25T21:54:09.954Z,19.85
2017-12-25T21:56:37.444Z,17.42
2017-12-25T21:59:04.910Z,19.05
2017-12-25T22:01:32.477Z,17.50
2017-12-25T22:03:59.950Z,18.02
2017-12-25T22:06:28.198Z,18.60
2017-12-25T22:08:55.708Z,19.10
2017-12-25T22:11:23.171Z,17.65
2017-12-25T22:13:50.686Z,19.00
2017-12-25T22:16:18.164Z,19.55
2017-12-25T22:18:46.407Z,19.10
2017-12-25T22:21:13.914Z,18.58
2017-12-25T22:23:42.164Z,20.20
2017-12-25T22:26:09.675Z,17.87
2017-12-25T22:28:37.141Z,18.80
2017-12-25T22:31:04.630Z,17.80
2017-12-25T22:33:32.108Z,18.67
2017-12-25T22:36:00.400Z,29.95
2017-12-25T22:38:27.941Z,23.35
2017-12-25T22:40:55.417Z,21.35
2017-12-25T22:43:23.720Z,18.50
2017-12-25T22:45:51.206Z,19.30
2017-12-25T22:48:18.710Z,17.48
2017-12-25T22:50:46.983Z,18.65
2017-12-25T22:53:15.214Z,16.83
2017-12-25T22:55:42.766Z,17.12
2017-12-25T22:58:10.230Z,18.25
2017-12-25T23:00:37.718Z,16.60
2017-12-25T23:03:05.219Z,17.25
2017-12-25T23:05:32.700Z,18.48
2017-12-25T23:08:00.201Z,18.33
2017-12-25T23:10:27.665Z,19.35
2017-12-25T23:12:55.907Z,18.95
2017-12-25T23:15:23.419Z,17.83
2017-12-25T23:17:51.675Z,18.85
2017-12-25T23:20:19.951Z,18.12
2017-12-25T23:22:48.178Z,17.27
2017-12-25T23:25:15.670Z,18.90
2017-12-25T23:27:43.939Z,17.65
2017-12-25T23:30:11.425Z,19.23
2017-12-25T23:32:39.695Z,18.85
2017-12-25T23:35:07.955Z,20.90
2017-12-25T23:37:35.422Z,16.52
2017-12-25T23:40:02.931Z,21.35
2017-12-25T23:42:30.419Z,17.80
2017-12-25T23:44:57.950Z,18.62
2017-12-25T23:47:25.430Z,18.35
2017-12-25T23:49:52.935Z,20.67
2017-12-25T23:52:21.173Z,18.62
2017-12-25T23:54:48.631Z,17.48
2017-12-25T23:57:16.137Z,16.75
2017-12-25T23:59:44.358Z,17.42
